OCN4EK EDDF-LDSP
Flight info
| Callsign | OCN4EK |
|---|---|
| Flight time | 1h 26m |
| Altitude | 37000 |
| Route | CINDY8S/18 CINDY Z74 LAMPU DCT NOMBO Y161 MAH DCT BERAS DCT LIKDA DCT BAKOR DCT MOBDO DCT RASUG DCT LOS DCT MINTU DCT SAL |
| Aircraft | A320/M-SDE3FGHIRWY/LB1 |
Departure
| Time | 2026-04-17 08:48 |
|---|---|
| Airport | Frankfurt Main Airport (EDDF) |
Arrival
| Time | 2026-04-17 10:14 |
|---|---|
| Airport | Split Saint Jerome Airport (LDSP) |
| Time | Latitude | Longitude | Altitude | Speed | Heading |
|---|---|---|---|---|---|
| 2026-04-17 08:13 | 50.04883 | 8.57153 | 356 ft | 0 kts | 161° |
| 2026-04-17 08:40 | 50.04868 | 8.57143 | 361 ft | 6 kts | 202° |
| 2026-04-17 08:40 | 50.04820 | 8.57107 | 357 ft | 7 kts | 205° |
| 2026-04-17 08:41 | 50.04775 | 8.57065 | 357 ft | 11 kts | 211° |
| 2026-04-17 08:41 | 50.04690 | 8.56988 | 357 ft | 15 kts | 208° |
| 2026-04-17 08:41 | 50.04585 | 8.56917 | 361 ft | 18 kts | 200° |
| 2026-04-17 08:41 | 50.04475 | 8.56851 | 361 ft | 17 kts | 211° |
| 2026-04-17 08:42 | 50.04417 | 8.56689 | 358 ft | 18 kts | 249° |
| 2026-04-17 08:42 | 50.04373 | 8.56502 | 365 ft | 19 kts | 249° |
| 2026-04-17 08:42 | 50.04324 | 8.56300 | 361 ft | 21 kts | 249° |
| 2026-04-17 08:42 | 50.04270 | 8.56078 | 357 ft | 23 kts | 249° |
| 2026-04-17 08:43 | 50.04211 | 8.55838 | 360 ft | 25 kts | 249° |
| 2026-04-17 08:43 | 50.04149 | 8.55578 | 356 ft | 27 kts | 250° |
| 2026-04-17 08:43 | 50.04085 | 8.55303 | 352 ft | 27 kts | 250° |
| 2026-04-17 08:43 | 50.04019 | 8.55023 | 359 ft | 27 kts | 249° |
| 2026-04-17 08:44 | 50.03952 | 8.54749 | 357 ft | 27 kts | 249° |
| 2026-04-17 08:44 | 50.03885 | 8.54468 | 353 ft | 29 kts | 249° |
| 2026-04-17 08:44 | 50.03797 | 8.54211 | 356 ft | 26 kts | 243° |
| 2026-04-17 08:44 | 50.03734 | 8.53957 | 352 ft | 26 kts | 250° |
| 2026-04-17 08:45 | 50.03670 | 8.53687 | 347 ft | 27 kts | 250° |
| 2026-04-17 08:45 | 50.03603 | 8.53418 | 336 ft | 24 kts | 249° |
| 2026-04-17 08:45 | 50.03542 | 8.53164 | 336 ft | 26 kts | 249° |
| 2026-04-17 08:45 | 50.03477 | 8.52898 | 333 ft | 22 kts | 248° |
| 2026-04-17 08:46 | 50.03425 | 8.52692 | 334 ft | 17 kts | 250° |
| 2026-04-17 08:46 | 50.03363 | 8.52596 | 335 ft | 12 kts | 187° |
| 2026-04-17 08:46 | 50.03341 | 8.52596 | 335 ft | 0 kts | 178° |
| 2026-04-17 08:47 | 50.03255 | 8.52600 | 334 ft | 46 kts | 179° |
| 2026-04-17 08:47 | 50.02696 | 8.52601 | 333 ft | 111 kts | 179° |
| 2026-04-17 08:48 | 50.01757 | 8.52615 | 340 ft | 159 kts | 179° |
| 2026-04-17 08:48 | 50.00645 | 8.52622 | 946 ft | 159 kts | 179° |
| 2026-04-17 08:48 | 49.99529 | 8.52617 | 1614 ft | 162 kts | 180° |
| 2026-04-17 08:48 | 49.98349 | 8.52624 | 2031 ft | 180 kts | 180° |
| 2026-04-17 08:49 | 49.97054 | 8.52989 | 2289 ft | 203 kts | 154° |
| 2026-04-17 08:49 | 49.95967 | 8.54535 | 2683 ft | 225 kts | 122° |
| 2026-04-17 08:49 | 49.95201 | 8.56681 | 3496 ft | 228 kts | 120° |
| 2026-04-17 08:49 | 49.94433 | 8.58846 | 4323 ft | 231 kts | 116° |
| 2026-04-17 08:50 | 49.94012 | 8.61293 | 4990 ft | 246 kts | 96° |
| 2026-04-17 08:50 | 49.93887 | 8.64062 | 5443 ft | 266 kts | 94° |
| 2026-04-17 08:50 | 49.93680 | 8.66946 | 6261 ft | 272 kts | 105° |
| 2026-04-17 08:50 | 49.92949 | 8.69651 | 7113 ft | 274 kts | 124° |
| 2026-04-17 08:51 | 49.91682 | 8.71858 | 7908 ft | 277 kts | 143° |
| 2026-04-17 08:51 | 49.90106 | 8.73613 | 8709 ft | 281 kts | 146° |
| 2026-04-17 08:51 | 49.88607 | 8.75610 | 9502 ft | 288 kts | 132° |
| 2026-04-17 08:51 | 49.87453 | 8.78176 | 10263 ft | 294 kts | 119° |
| 2026-04-17 08:52 | 49.86441 | 8.81025 | 10673 ft | 313 kts | 119° |
| 2026-04-17 08:52 | 49.85346 | 8.84083 | 10945 ft | 335 kts | 119° |
| 2026-04-17 08:52 | 49.84189 | 8.87270 | 11534 ft | 343 kts | 119° |
| 2026-04-17 08:52 | 49.83005 | 8.90518 | 12233 ft | 349 kts | 119° |
| 2026-04-17 08:53 | 49.81804 | 8.93811 | 12941 ft | 354 kts | 119° |
| 2026-04-17 08:53 | 49.80587 | 8.97153 | 13638 ft | 359 kts | 119° |
| 2026-04-17 08:53 | 49.79358 | 9.00527 | 14272 ft | 363 kts | 119° |
| 2026-04-17 08:53 | 49.78108 | 9.03960 | 14896 ft | 368 kts | 119° |
| 2026-04-17 08:54 | 49.76858 | 9.07431 | 15509 ft | 372 kts | 116° |
| 2026-04-17 08:54 | 49.75896 | 9.11163 | 16093 ft | 376 kts | 105° |
| 2026-04-17 08:54 | 49.75225 | 9.15084 | 16687 ft | 380 kts | 107° |
| 2026-04-17 08:54 | 49.74185 | 9.18862 | 17295 ft | 385 kts | 118° |
| 2026-04-17 08:55 | 49.72686 | 9.22302 | 17891 ft | 389 kts | 130° |
| 2026-04-17 08:55 | 49.70895 | 9.25464 | 18494 ft | 393 kts | 131° |
| 2026-04-17 08:55 | 49.69087 | 9.28643 | 19013 ft | 396 kts | 131° |
| 2026-04-17 08:55 | 49.67259 | 9.31863 | 19532 ft | 400 kts | 131° |
| 2026-04-17 08:56 | 49.65437 | 9.35078 | 20050 ft | 403 kts | 131° |
| 2026-04-17 08:56 | 49.63582 | 9.38350 | 20564 ft | 406 kts | 131° |
| 2026-04-17 08:56 | 49.61550 | 9.41390 | 21058 ft | 409 kts | 142° |
| 2026-04-17 08:56 | 49.59199 | 9.43880 | 21538 ft | 411 kts | 150° |
| 2026-04-17 08:57 | 49.56734 | 9.46129 | 22040 ft | 414 kts | 150° |
| 2026-04-17 08:57 | 49.54242 | 9.48396 | 22491 ft | 418 kts | 150° |
| 2026-04-17 08:57 | 49.51725 | 9.50686 | 22944 ft | 422 kts | 150° |
| 2026-04-17 08:57 | 49.49188 | 9.52997 | 23407 ft | 426 kts | 150° |
| 2026-04-17 08:58 | 49.46631 | 9.55329 | 23844 ft | 429 kts | 150° |
| 2026-04-17 08:58 | 49.44931 | 9.56881 | 24096 ft | 431 kts | 150° |
| 2026-04-17 08:58 | 49.41501 | 9.60009 | 24616 ft | 434 kts | 150° |
| 2026-04-17 08:58 | 49.39743 | 9.61611 | 24879 ft | 436 kts | 150° |
| 2026-04-17 08:59 | 49.37129 | 9.63988 | 25264 ft | 438 kts | 150° |
| 2026-04-17 08:59 | 49.34546 | 9.66490 | 25647 ft | 441 kts | 144° |
| 2026-04-17 08:59 | 49.32230 | 9.69513 | 26020 ft | 443 kts | 135° |
| 2026-04-17 08:59 | 49.30113 | 9.72745 | 26412 ft | 444 kts | 135° |
| 2026-04-17 09:00 | 49.27921 | 9.76095 | 26781 ft | 446 kts | 135° |
| 2026-04-17 09:00 | 49.25722 | 9.79457 | 27147 ft | 449 kts | 135° |
| 2026-04-17 09:00 | 49.23505 | 9.82843 | 27500 ft | 452 kts | 135° |
| 2026-04-17 09:00 | 49.21273 | 9.86246 | 27838 ft | 454 kts | 135° |
| 2026-04-17 09:01 | 49.19024 | 9.89664 | 28179 ft | 457 kts | 135° |
| 2026-04-17 09:01 | 49.16790 | 9.93048 | 28540 ft | 459 kts | 135° |
| 2026-04-17 09:01 | 49.14517 | 9.96488 | 28885 ft | 461 kts | 135° |
| 2026-04-17 09:01 | 49.12234 | 9.99942 | 29226 ft | 463 kts | 135° |
| 2026-04-17 09:02 | 49.09938 | 10.03413 | 29556 ft | 466 kts | 135° |
| 2026-04-17 09:02 | 49.07631 | 10.06891 | 29858 ft | 468 kts | 135° |
| 2026-04-17 09:02 | 49.05302 | 10.10376 | 30187 ft | 470 kts | 136° |
| 2026-04-17 09:02 | 49.02930 | 10.13816 | 30465 ft | 472 kts | 137° |
| 2026-04-17 09:03 | 49.00535 | 10.17199 | 30717 ft | 474 kts | 138° |
| 2026-04-17 09:03 | 48.98096 | 10.20592 | 30944 ft | 476 kts | 138° |
| 2026-04-17 09:03 | 48.95641 | 10.23995 | 31192 ft | 478 kts | 138° |
| 2026-04-17 09:03 | 48.93182 | 10.27418 | 31424 ft | 480 kts | 137° |
| 2026-04-17 09:04 | 48.90724 | 10.30870 | 31696 ft | 481 kts | 137° |
| 2026-04-17 09:04 | 48.88273 | 10.34335 | 32028 ft | 481 kts | 137° |
| 2026-04-17 09:04 | 48.85825 | 10.37795 | 32370 ft | 481 kts | 137° |
| 2026-04-17 09:04 | 48.83405 | 10.41210 | 32681 ft | 481 kts | 137° |
| 2026-04-17 09:05 | 48.80996 | 10.44731 | 32978 ft | 481 kts | 135° |
| 2026-04-17 09:05 | 48.78661 | 10.48371 | 33286 ft | 481 kts | 133° |
| 2026-04-17 09:05 | 48.76377 | 10.52087 | 33599 ft | 482 kts | 133° |
| 2026-04-17 09:05 | 48.74146 | 10.55777 | 33901 ft | 482 kts | 132° |
| 2026-04-17 09:06 | 48.71881 | 10.59517 | 34228 ft | 482 kts | 133° |
| 2026-04-17 09:06 | 48.69614 | 10.63215 | 34499 ft | 482 kts | 133° |
| 2026-04-17 09:06 | 48.67318 | 10.66903 | 34779 ft | 481 kts | 133° |
| 2026-04-17 09:06 | 48.65013 | 10.70565 | 35062 ft | 481 kts | 134° |
| 2026-04-17 09:07 | 48.62703 | 10.74212 | 35337 ft | 480 kts | 134° |
| 2026-04-17 09:07 | 48.60394 | 10.77844 | 35614 ft | 479 kts | 134° |
| 2026-04-17 09:07 | 48.58087 | 10.81475 | 35879 ft | 479 kts | 134° |
| 2026-04-17 09:07 | 48.55794 | 10.85113 | 36136 ft | 478 kts | 133° |
| 2026-04-17 09:08 | 48.53522 | 10.88743 | 36395 ft | 477 kts | 133° |
| 2026-04-17 09:08 | 48.51250 | 10.92385 | 36623 ft | 477 kts | 133° |
| 2026-04-17 09:08 | 48.48978 | 10.96030 | 36866 ft | 476 kts | 133° |
| 2026-04-17 09:08 | 48.46702 | 10.99650 | 37086 ft | 476 kts | 134° |
| 2026-04-17 09:09 | 48.44409 | 11.03248 | 37230 ft | 476 kts | 134° |
| 2026-04-17 09:09 | 48.39808 | 11.10373 | 37247 ft | 473 kts | 134° |
| 2026-04-17 09:10 | 48.32922 | 11.21009 | 37246 ft | 473 kts | 134° |
| 2026-04-17 09:10 | 48.28250 | 11.27961 | 37249 ft | 473 kts | 141° |
| 2026-04-17 09:11 | 48.22658 | 11.33026 | 37246 ft | 470 kts | 160° |
| 2026-04-17 09:11 | 48.16496 | 11.36250 | 37250 ft | 469 kts | 163° |
| 2026-04-17 09:12 | 48.10315 | 11.39423 | 37253 ft | 470 kts | 163° |
| 2026-04-17 09:12 | 48.04134 | 11.42600 | 37250 ft | 470 kts | 163° |
| 2026-04-17 09:13 | 47.97947 | 11.45763 | 37260 ft | 470 kts | 163° |
| 2026-04-17 09:13 | 47.91761 | 11.48907 | 37262 ft | 470 kts | 163° |
| 2026-04-17 09:14 | 47.85573 | 11.52038 | 37252 ft | 470 kts | 163° |
| 2026-04-17 09:14 | 47.79385 | 11.55175 | 37260 ft | 470 kts | 163° |
| 2026-04-17 09:15 | 47.73190 | 11.58302 | 37261 ft | 470 kts | 163° |
| 2026-04-17 09:15 | 47.67001 | 11.61421 | 37260 ft | 470 kts | 163° |
| 2026-04-17 09:16 | 47.60811 | 11.64538 | 37257 ft | 469 kts | 163° |
| 2026-04-17 09:16 | 47.54627 | 11.67643 | 37262 ft | 469 kts | 163° |
| 2026-04-17 09:17 | 47.48442 | 11.70727 | 37263 ft | 469 kts | 163° |
| 2026-04-17 09:17 | 47.42257 | 11.73812 | 37276 ft | 469 kts | 163° |
| 2026-04-17 09:18 | 47.36040 | 11.76398 | 37255 ft | 466 kts | 174° |
| 2026-04-17 09:18 | 47.29613 | 11.76615 | 37258 ft | 461 kts | 185° |
| 2026-04-17 09:19 | 47.23192 | 11.76249 | 37255 ft | 462 kts | 185° |
| 2026-04-17 09:19 | 47.16773 | 11.75905 | 37250 ft | 462 kts | 185° |
| 2026-04-17 09:20 | 47.10349 | 11.75544 | 37251 ft | 462 kts | 185° |
| 2026-04-17 09:20 | 47.03917 | 11.75193 | 37249 ft | 462 kts | 185° |
| 2026-04-17 09:21 | 46.97493 | 11.74859 | 37230 ft | 462 kts | 185° |
| 2026-04-17 09:21 | 46.91076 | 11.74519 | 37233 ft | 461 kts | 185° |
| 2026-04-17 09:22 | 46.84658 | 11.74164 | 37229 ft | 462 kts | 185° |
| 2026-04-17 09:22 | 46.78240 | 11.73801 | 37231 ft | 461 kts | 185° |
| 2026-04-17 09:23 | 46.71825 | 11.73446 | 37222 ft | 461 kts | 185° |
| 2026-04-17 09:23 | 46.65415 | 11.73097 | 37215 ft | 461 kts | 185° |
| 2026-04-17 09:24 | 46.59012 | 11.73806 | 37208 ft | 466 kts | 168° |
| 2026-04-17 09:24 | 46.52798 | 11.76521 | 37194 ft | 467 kts | 164° |
| 2026-04-17 09:25 | 46.46599 | 11.79357 | 37199 ft | 468 kts | 160° |
| 2026-04-17 09:25 | 46.40930 | 11.83945 | 37194 ft | 469 kts | 141° |
| 2026-04-17 09:26 | 46.36297 | 11.90579 | 37183 ft | 469 kts | 133° |
| 2026-04-17 09:26 | 46.31791 | 11.97422 | 37182 ft | 470 kts | 133° |
| 2026-04-17 09:27 | 46.27270 | 12.04250 | 37184 ft | 470 kts | 133° |
| 2026-04-17 09:27 | 46.22747 | 12.11087 | 37189 ft | 470 kts | 133° |
| 2026-04-17 09:28 | 46.18222 | 12.17914 | 37187 ft | 470 kts | 133° |
| 2026-04-17 09:28 | 46.13721 | 12.24684 | 37183 ft | 471 kts | 133° |
| 2026-04-17 09:29 | 46.09185 | 12.31491 | 37193 ft | 471 kts | 133° |
| 2026-04-17 09:29 | 46.04653 | 12.38290 | 37210 ft | 471 kts | 133° |
| 2026-04-17 09:30 | 46.00115 | 12.45080 | 37203 ft | 471 kts | 133° |
| 2026-04-17 09:30 | 45.95593 | 12.51815 | 37203 ft | 471 kts | 133° |
| 2026-04-17 09:31 | 45.91037 | 12.58580 | 37200 ft | 471 kts | 133° |
| 2026-04-17 09:31 | 45.86480 | 12.65329 | 37185 ft | 471 kts | 133° |
| 2026-04-17 09:32 | 45.81922 | 12.72076 | 37173 ft | 471 kts | 133° |
| 2026-04-17 09:32 | 45.77355 | 12.78806 | 37173 ft | 471 kts | 133° |
| 2026-04-17 09:33 | 45.72787 | 12.85523 | 37174 ft | 471 kts | 133° |
| 2026-04-17 09:33 | 45.68212 | 12.92231 | 37170 ft | 471 kts | 134° |
| 2026-04-17 09:34 | 45.63612 | 12.98732 | 37170 ft | 471 kts | 135° |
| 2026-04-17 09:34 | 45.58811 | 13.05263 | 37172 ft | 471 kts | 136° |
| 2026-04-17 09:35 | 45.54070 | 13.11698 | 37175 ft | 470 kts | 135° |
| 2026-04-17 09:35 | 45.49356 | 13.18156 | 37175 ft | 470 kts | 135° |
| 2026-04-17 09:36 | 45.44677 | 13.24563 | 37178 ft | 470 kts | 135° |
| 2026-04-17 09:36 | 45.39965 | 13.31000 | 37181 ft | 470 kts | 135° |
| 2026-04-17 09:37 | 45.35250 | 13.37423 | 37178 ft | 469 kts | 135° |
| 2026-04-17 09:37 | 45.30532 | 13.43823 | 37179 ft | 468 kts | 136° |
| 2026-04-17 09:38 | 45.25817 | 13.50203 | 37175 ft | 468 kts | 136° |
| 2026-04-17 09:38 | 45.21100 | 13.56570 | 37172 ft | 468 kts | 136° |
| 2026-04-17 09:39 | 45.16382 | 13.62919 | 37171 ft | 468 kts | 136° |
| 2026-04-17 09:39 | 45.11664 | 13.69262 | 37153 ft | 467 kts | 136° |
| 2026-04-17 09:40 | 45.06953 | 13.75591 | 37154 ft | 467 kts | 136° |
| 2026-04-17 09:40 | 45.02239 | 13.81914 | 37155 ft | 467 kts | 136° |
| 2026-04-17 09:41 | 44.97520 | 13.88213 | 37193 ft | 467 kts | 136° |
| 2026-04-17 09:41 | 44.92800 | 13.94492 | 37188 ft | 467 kts | 136° |
| 2026-04-17 09:42 | 44.88074 | 14.00777 | 37178 ft | 466 kts | 136° |
| 2026-04-17 09:42 | 44.83347 | 14.07038 | 37143 ft | 466 kts | 136° |
| 2026-04-17 09:43 | 44.78613 | 14.13288 | 37142 ft | 466 kts | 136° |
| 2026-04-17 09:43 | 44.73882 | 14.19535 | 37150 ft | 466 kts | 136° |
| 2026-04-17 09:44 | 44.69144 | 14.25771 | 37147 ft | 466 kts | 136° |
| 2026-04-17 09:44 | 44.65201 | 14.30944 | 36951 ft | 467 kts | 136° |
| 2026-04-17 09:45 | 44.62022 | 14.35109 | 36056 ft | 470 kts | 136° |
| 2026-04-17 09:45 | 44.60435 | 14.37188 | 35498 ft | 473 kts | 136° |
| 2026-04-17 09:45 | 44.58022 | 14.40347 | 34710 ft | 476 kts | 136° |
| 2026-04-17 09:45 | 44.55607 | 14.43502 | 34186 ft | 473 kts | 136° |
| 2026-04-17 09:46 | 44.53208 | 14.46634 | 33581 ft | 470 kts | 136° |
| 2026-04-17 09:46 | 44.50806 | 14.49705 | 33037 ft | 466 kts | 137° |
| 2026-04-17 09:46 | 44.48371 | 14.52680 | 32471 ft | 462 kts | 138° |
| 2026-04-17 09:46 | 44.45924 | 14.55575 | 31923 ft | 459 kts | 139° |
| 2026-04-17 09:47 | 44.43475 | 14.58421 | 31378 ft | 456 kts | 139° |
| 2026-04-17 09:47 | 44.41040 | 14.61242 | 30847 ft | 453 kts | 139° |
| 2026-04-17 09:47 | 44.38631 | 14.64054 | 30318 ft | 450 kts | 138° |
| 2026-04-17 09:47 | 44.36242 | 14.66865 | 29733 ft | 447 kts | 138° |
| 2026-04-17 09:48 | 44.33885 | 14.69656 | 29229 ft | 442 kts | 138° |
| 2026-04-17 09:48 | 44.31559 | 14.72419 | 28731 ft | 437 kts | 138° |
| 2026-04-17 09:48 | 44.29257 | 14.75153 | 28234 ft | 432 kts | 138° |
| 2026-04-17 09:48 | 44.26979 | 14.77855 | 27752 ft | 427 kts | 138° |
| 2026-04-17 09:49 | 44.24725 | 14.80522 | 27289 ft | 423 kts | 138° |
| 2026-04-17 09:49 | 44.22494 | 14.83158 | 26835 ft | 418 kts | 138° |
| 2026-04-17 09:49 | 44.20289 | 14.85763 | 26381 ft | 413 kts | 138° |
| 2026-04-17 09:49 | 44.18105 | 14.88339 | 25936 ft | 409 kts | 138° |
| 2026-04-17 09:50 | 44.15941 | 14.90890 | 25490 ft | 406 kts | 138° |
| 2026-04-17 09:50 | 44.13796 | 14.93413 | 25039 ft | 402 kts | 138° |
| 2026-04-17 09:50 | 44.11664 | 14.95915 | 24575 ft | 399 kts | 138° |
| 2026-04-17 09:50 | 44.09547 | 14.98397 | 24117 ft | 397 kts | 139° |
| 2026-04-17 09:51 | 44.07441 | 15.00865 | 23628 ft | 395 kts | 139° |
| 2026-04-17 09:51 | 44.05345 | 15.03321 | 23111 ft | 392 kts | 139° |
| 2026-04-17 09:51 | 44.03265 | 15.05753 | 22642 ft | 389 kts | 139° |
| 2026-04-17 09:51 | 44.01202 | 15.08162 | 22171 ft | 386 kts | 139° |
| 2026-04-17 09:52 | 43.99150 | 15.10557 | 21694 ft | 384 kts | 139° |
| 2026-04-17 09:52 | 43.97109 | 15.12934 | 21235 ft | 382 kts | 139° |
| 2026-04-17 09:52 | 43.95082 | 15.15294 | 20770 ft | 379 kts | 139° |
| 2026-04-17 09:52 | 43.93066 | 15.17644 | 20315 ft | 378 kts | 138° |
| 2026-04-17 09:53 | 43.91073 | 15.20009 | 19854 ft | 376 kts | 137° |
| 2026-04-17 09:53 | 43.89103 | 15.22381 | 19390 ft | 375 kts | 137° |
| 2026-04-17 09:53 | 43.87141 | 15.24754 | 18944 ft | 374 kts | 137° |
| 2026-04-17 09:53 | 43.85183 | 15.27119 | 18491 ft | 373 kts | 137° |
| 2026-04-17 09:54 | 43.83224 | 15.29475 | 18010 ft | 372 kts | 137° |
| 2026-04-17 09:54 | 43.81271 | 15.31815 | 17553 ft | 370 kts | 137° |
| 2026-04-17 09:54 | 43.79331 | 15.34131 | 17111 ft | 367 kts | 137° |
| 2026-04-17 09:54 | 43.77399 | 15.36429 | 16672 ft | 365 kts | 137° |
| 2026-04-17 09:55 | 43.75483 | 15.38706 | 16239 ft | 362 kts | 137° |
| 2026-04-17 09:55 | 43.73582 | 15.40965 | 15816 ft | 359 kts | 137° |
| 2026-04-17 09:55 | 43.71690 | 15.43216 | 15380 ft | 357 kts | 137° |
| 2026-04-17 09:55 | 43.69813 | 15.45451 | 14965 ft | 355 kts | 137° |
| 2026-04-17 09:56 | 43.67946 | 15.47673 | 14552 ft | 353 kts | 137° |
| 2026-04-17 09:56 | 43.66107 | 15.49855 | 14340 ft | 345 kts | 137° |
| 2026-04-17 09:56 | 43.64299 | 15.52004 | 14097 ft | 342 kts | 137° |
| 2026-04-17 09:56 | 43.62499 | 15.54143 | 14077 ft | 341 kts | 137° |
| 2026-04-17 09:57 | 43.60692 | 15.56284 | 13809 ft | 345 kts | 137° |
| 2026-04-17 09:57 | 43.58852 | 15.58459 | 13240 ft | 347 kts | 138° |
| 2026-04-17 09:57 | 43.57046 | 15.60588 | 13030 ft | 337 kts | 138° |
| 2026-04-17 09:57 | 43.55277 | 15.62675 | 12760 ft | 330 kts | 138° |
| 2026-04-17 09:58 | 43.53568 | 15.64688 | 12619 ft | 315 kts | 137° |
| 2026-04-17 09:58 | 43.51947 | 15.66593 | 12344 ft | 300 kts | 138° |
| 2026-04-17 09:58 | 43.50378 | 15.68437 | 11847 ft | 294 kts | 137° |
| 2026-04-17 09:58 | 43.48857 | 15.70227 | 11626 ft | 279 kts | 137° |
| 2026-04-17 09:59 | 43.47403 | 15.71937 | 11300 ft | 274 kts | 137° |
| 2026-04-17 09:59 | 43.45950 | 15.73651 | 10930 ft | 276 kts | 137° |
| 2026-04-17 09:59 | 43.44497 | 15.75363 | 10606 ft | 270 kts | 137° |
| 2026-04-17 09:59 | 43.43116 | 15.76985 | 10490 ft | 253 kts | 137° |
| 2026-04-17 10:00 | 43.41732 | 15.78350 | 10359 ft | 239 kts | 154° |
| 2026-04-17 10:00 | 43.40182 | 15.78951 | 10232 ft | 227 kts | 175° |
| 2026-04-17 10:00 | 43.38641 | 15.78791 | 10002 ft | 220 kts | 196° |
| 2026-04-17 10:00 | 43.37256 | 15.77943 | 9664 ft | 218 kts | 216° |
| 2026-04-17 10:01 | 43.36144 | 15.76563 | 9309 ft | 215 kts | 227° |
| 2026-04-17 10:01 | 43.35100 | 15.75087 | 8956 ft | 215 kts | 227° |
| 2026-04-17 10:01 | 43.34066 | 15.73657 | 8613 ft | 213 kts | 222° |
| 2026-04-17 10:01 | 43.32810 | 15.72598 | 8295 ft | 211 kts | 200° |
| 2026-04-17 10:02 | 43.31379 | 15.72210 | 7907 ft | 211 kts | 180° |
| 2026-04-17 10:02 | 43.29936 | 15.72515 | 7574 ft | 210 kts | 160° |
| 2026-04-17 10:02 | 43.28665 | 15.73461 | 7259 ft | 207 kts | 139° |
| 2026-04-17 10:02 | 43.27632 | 15.74822 | 6938 ft | 205 kts | 133° |
| 2026-04-17 10:03 | 43.26617 | 15.76193 | 6619 ft | 204 kts | 134° |
| 2026-04-17 10:03 | 43.25609 | 15.77561 | 6303 ft | 203 kts | 130° |
| 2026-04-17 10:03 | 43.24883 | 15.79184 | 5981 ft | 198 kts | 108° |
| 2026-04-17 10:03 | 43.24625 | 15.81013 | 5670 ft | 194 kts | 88° |
| 2026-04-17 10:04 | 43.24840 | 15.82817 | 5443 ft | 191 kts | 69° |
| 2026-04-17 10:04 | 43.25474 | 15.84404 | 5273 ft | 190 kts | 50° |
| 2026-04-17 10:04 | 43.26386 | 15.85708 | 5118 ft | 189 kts | 44° |
| 2026-04-17 10:04 | 43.27314 | 15.86995 | 4873 ft | 189 kts | 44° |
| 2026-04-17 10:05 | 43.28232 | 15.88276 | 4781 ft | 188 kts | 45° |
| 2026-04-17 10:05 | 43.29150 | 15.89559 | 4651 ft | 188 kts | 45° |
| 2026-04-17 10:05 | 43.30064 | 15.90839 | 4513 ft | 187 kts | 45° |
| 2026-04-17 10:05 | 43.30976 | 15.92117 | 4365 ft | 187 kts | 46° |
| 2026-04-17 10:06 | 43.31886 | 15.93395 | 4274 ft | 187 kts | 45° |
| 2026-04-17 10:06 | 43.32767 | 15.94628 | 4193 ft | 174 kts | 45° |
| 2026-04-17 10:06 | 43.33580 | 15.95763 | 4141 ft | 158 kts | 46° |
| 2026-04-17 10:06 | 43.34344 | 15.96830 | 4062 ft | 155 kts | 46° |
| 2026-04-17 10:07 | 43.35097 | 15.97886 | 3987 ft | 154 kts | 46° |
| 2026-04-17 10:07 | 43.35848 | 15.98940 | 3920 ft | 154 kts | 46° |
| 2026-04-17 10:07 | 43.36587 | 15.99978 | 3855 ft | 153 kts | 46° |
| 2026-04-17 10:07 | 43.37328 | 16.01015 | 3784 ft | 151 kts | 45° |
| 2026-04-17 10:08 | 43.38105 | 16.01976 | 3737 ft | 150 kts | 45° |
| 2026-04-17 10:08 | 43.38818 | 16.03021 | 3673 ft | 150 kts | 49° |
| 2026-04-17 10:08 | 43.39487 | 16.04114 | 3603 ft | 149 kts | 51° |
| 2026-04-17 10:08 | 43.40138 | 16.05229 | 3519 ft | 150 kts | 52° |
| 2026-04-17 10:09 | 43.40778 | 16.06351 | 3421 ft | 149 kts | 52° |
| 2026-04-17 10:09 | 43.41414 | 16.07475 | 3323 ft | 149 kts | 52° |
| 2026-04-17 10:09 | 43.42046 | 16.08598 | 3220 ft | 148 kts | 53° |
| 2026-04-17 10:09 | 43.42675 | 16.09718 | 3135 ft | 148 kts | 53° |
| 2026-04-17 10:10 | 43.43303 | 16.10838 | 3085 ft | 148 kts | 53° |
| 2026-04-17 10:10 | 43.43935 | 16.11964 | 2961 ft | 148 kts | 53° |
| 2026-04-17 10:10 | 43.44563 | 16.13085 | 2796 ft | 148 kts | 52° |
| 2026-04-17 10:11 | 43.45816 | 16.15322 | 2419 ft | 147 kts | 52° |
| 2026-04-17 10:11 | 43.46442 | 16.16440 | 2217 ft | 148 kts | 52° |
| 2026-04-17 10:11 | 43.47069 | 16.17561 | 2029 ft | 149 kts | 52° |
| 2026-04-17 10:11 | 43.47695 | 16.18681 | 1827 ft | 148 kts | 52° |
| 2026-04-17 10:12 | 43.48322 | 16.19802 | 1645 ft | 147 kts | 53° |
| 2026-04-17 10:12 | 43.48953 | 16.20933 | 1438 ft | 150 kts | 53° |
| 2026-04-17 10:12 | 43.49592 | 16.22077 | 1245 ft | 152 kts | 53° |
| 2026-04-17 10:12 | 43.50237 | 16.23232 | 1038 ft | 151 kts | 56° |
| 2026-04-17 10:13 | 43.50862 | 16.24352 | 828 ft | 142 kts | 56° |
| 2026-04-17 10:13 | 43.51451 | 16.25406 | 680 ft | 135 kts | 56° |
| 2026-04-17 10:13 | 43.52022 | 16.26429 | 522 ft | 134 kts | 53° |
| 2026-04-17 10:13 | 43.52582 | 16.27440 | 358 ft | 133 kts | 56° |
| 2026-04-17 10:14 | 43.53157 | 16.28445 | 120 ft | 133 kts | 56° |
| 2026-04-17 10:14 | 43.53667 | 16.29388 | 83 ft | 96 kts | 52° |
| 2026-04-17 10:14 | 43.53895 | 16.29790 | 70 ft | 23 kts | 52° |
| 2026-04-17 10:14 | 43.54014 | 16.30002 | 59 ft | 23 kts | 53° |
| 2026-04-17 10:15 | 43.54003 | 16.30102 | 61 ft | 14 kts | 187° |
| 2026-04-17 10:15 | 43.53934 | 16.30074 | 60 ft | 8 kts | 200° |
| 2026-04-17 10:15 | 43.53883 | 16.30018 | 65 ft | 11 kts | 231° |
| 2026-04-17 10:15 | 43.53838 | 16.29937 | 66 ft | 10 kts | 233° |
| 2026-04-17 10:16 | 43.53805 | 16.29876 | 65 ft | 2 kts | 233° |
| 2026-04-17 10:16 | 43.53796 | 16.29865 | 68 ft | 1 kts | 208° |
| 2026-04-17 10:16 | 43.53790 | 16.29867 | 60 ft | 2 kts | 173° |
| 2026-04-17 10:16 | 43.53783 | 16.29881 | 62 ft | 4 kts | 125° |
| 2026-04-17 10:17 | 43.53770 | 16.29916 | 62 ft | 4 kts | 116° |
| 2026-04-17 10:17 | 43.53763 | 16.29936 | 65 ft | 0 kts | 116° |